createdAt,value
2022-08-28T00:02:07.396Z,100.00
2022-08-28T00:04:36.790Z,100.00
2022-08-28T00:07:06.206Z,100.00
2022-08-28T00:09:34.034Z,100.00
2022-08-28T00:12:02.926Z,100.00
2022-08-28T00:14:30.718Z,100.00
2022-08-28T00:16:58.691Z,100.00
2022-08-28T00:19:26.643Z,100.00
2022-08-28T00:21:54.574Z,100.00
2022-08-28T00:24:23.730Z,100.00
2022-08-28T00:27:08.947Z,100.00
2022-08-28T00:29:37.017Z,100.00
2022-08-28T00:32:05.541Z,100.00
2022-08-28T00:34:33.791Z,100.00
2022-08-28T00:37:01.998Z,100.00
2022-08-28T00:39:31.189Z,100.00
2022-08-28T00:41:59.326Z,100.00
2022-08-28T00:44:28.778Z,100.00
2022-08-28T00:46:58.886Z,100.00
2022-08-28T00:49:30.261Z,100.00
2022-08-28T00:52:11.317Z,100.00
2022-08-28T00:54:54.442Z,100.00
2022-08-28T00:57:29.686Z,100.00
2022-08-28T00:59:57.445Z,100.00
2022-08-28T01:02:26.551Z,100.00
2022-08-28T01:04:56.092Z,100.00
2022-08-28T01:07:23.949Z,100.00
2022-08-28T01:09:55.136Z,100.00
2022-08-28T01:12:25.751Z,100.00
2022-08-28T01:14:59.950Z,100.00
2022-08-28T01:17:31.240Z,100.00
2022-08-28T01:20:03.823Z,100.00
2022-08-28T01:22:38.010Z,100.00
2022-08-28T01:25:12.262Z,100.00
2022-08-28T01:27:42.015Z,100.00
2022-08-28T01:30:11.484Z,100.00
2022-08-28T01:32:41.536Z,100.00
2022-08-28T01:35:12.928Z,100.00
2022-08-28T01:37:42.153Z,100.00
2022-08-28T01:40:14.139Z,100.00
2022-08-28T01:42:42.599Z,100.00
2022-08-28T01:45:13.650Z,100.00
2022-08-28T01:47:44.237Z,100.00
2022-08-28T01:50:15.149Z,100.00
2022-08-28T01:52:43.049Z,100.00
2022-08-28T01:55:12.891Z,100.00
2022-08-28T01:57:45.146Z,100.00
2022-08-28T02:00:13.443Z,100.00
2022-08-28T02:02:41.302Z,100.00
2022-08-28T02:05:10.884Z,100.00
2022-08-28T02:07:39.300Z,100.00
2022-08-28T02:10:09.178Z,100.00
2022-08-28T02:12:38.378Z,100.00
2022-08-28T02:15:07.545Z,100.00
2022-08-28T02:17:35.988Z,100.00
2022-08-28T02:20:05.225Z,100.00
2022-08-28T02:22:33.307Z,100.00
2022-08-28T02:25:01.739Z,100.00
2022-08-28T02:27:29.821Z,100.00
2022-08-28T02:29:59.724Z,100.00
2022-08-28T02:32:28.427Z,100.00
2022-08-28T02:34:56.517Z,100.00
2022-08-28T02:37:24.548Z,100.00
2022-08-28T02:39:55.384Z,100.00
2022-08-28T02:42:23.339Z,100.00
2022-08-28T02:44:51.496Z,100.00
2022-08-28T02:47:20.874Z,100.00
2022-08-28T02:49:48.952Z,100.00
2022-08-28T02:52:17.059Z,100.00
2022-08-28T02:54:46.266Z,100.00
2022-08-28T02:57:14.269Z,100.00
2022-08-28T02:59:43.423Z,100.00
2022-08-28T03:02:11.276Z,100.00
2022-08-28T03:04:40.481Z,100.00
2022-08-28T03:07:09.978Z,100.00
2022-08-28T03:09:40.132Z,100.00
2022-08-28T03:12:09.542Z,100.00
2022-08-28T03:14:37.745Z,100.00
2022-08-28T03:17:05.857Z,100.00
2022-08-28T03:19:33.651Z,100.00
2022-08-28T03:22:02.849Z,100.00
2022-08-28T03:24:29.828Z,100.00
2022-08-28T03:26:58.310Z,100.00
2022-08-28T03:29:26.040Z,100.00
2022-08-28T03:31:53.822Z,100.00
2022-08-28T03:34:21.572Z,100.00
2022-08-28T03:36:49.650Z,100.00
2022-08-28T03:39:18.946Z,100.00
2022-08-28T03:41:46.669Z,100.00
2022-08-28T03:44:15.746Z,100.00
2022-08-28T03:46:43.505Z,100.00
2022-08-28T03:49:11.886Z,100.00
2022-08-28T03:51:41.607Z,100.00
2022-08-28T03:54:09.361Z,100.00
2022-08-28T03:56:38.473Z,100.00
2022-08-28T03:59:06.247Z,100.00
2022-08-28T04:01:34.620Z,100.00
2022-08-28T04:04:02.565Z,100.00
2022-08-28T04:06:30.261Z,100.00
2022-08-28T04:09:00.092Z,100.00
2022-08-28T04:11:28.511Z,100.00
2022-08-28T04:13:58.316Z,100.00
2022-08-28T04:16:26.077Z,100.00
2022-08-28T04:18:54.074Z,100.00
2022-08-28T04:21:26.005Z,100.00
2022-08-28T04:23:54.620Z,100.00
2022-08-28T04:26:24.474Z,100.00
2022-08-28T04:28:53.633Z,100.00
2022-08-28T04:31:31.722Z,100.00
2022-08-28T04:34:00.489Z,100.00
2022-08-28T04:36:28.283Z,100.00
2022-08-28T04:38:56.928Z,100.00
2022-08-28T04:41:24.661Z,100.00
2022-08-28T04:43:53.964Z,100.00
2022-08-28T04:46:21.696Z,100.00
2022-08-28T04:48:51.200Z,100.00
2022-08-28T04:51:20.301Z,100.00
2022-08-28T04:53:48.052Z,100.00
2022-08-28T04:56:17.018Z,100.00
2022-08-28T04:58:45.444Z,100.00
2022-08-28T05:01:18.688Z,100.00
2022-08-28T05:03:46.961Z,100.00
2022-08-28T05:06:17.864Z,100.00
2022-08-28T05:08:45.612Z,100.00
2022-08-28T05:11:24.513Z,100.00
2022-08-28T05:14:02.119Z,100.00
2022-08-28T05:16:30.039Z,100.00
2022-08-28T05:19:01.313Z,100.00
2022-08-28T05:21:30.403Z,100.00
2022-08-28T05:23:59.364Z,100.00
2022-08-28T05:26:29.799Z,100.00
2022-08-28T05:28:59.820Z,100.00
2022-08-28T05:31:29.065Z,100.00
2022-08-28T05:33:57.297Z,100.00
2022-08-28T05:36:32.831Z,100.00
2022-08-28T05:39:04.394Z,100.00
2022-08-28T05:41:33.389Z,100.00
2022-08-28T05:44:02.955Z,100.00
2022-08-28T05:46:31.294Z,100.00
2022-08-28T05:49:00.218Z,100.00
2022-08-28T05:51:28.424Z,100.00
2022-08-28T05:53:57.530Z,100.00
2022-08-28T05:56:29.851Z,100.00
2022-08-28T05:58:58.108Z,100.00
2022-08-28T06:01:28.470Z,100.00
2022-08-28T06:03:58.217Z,100.00
2022-08-28T06:06:27.795Z,100.00
2022-08-28T06:08:59.339Z,100.00
2022-08-28T06:11:30.953Z,100.00
2022-08-28T06:14:01.768Z,100.00
2022-08-28T06:16:31.507Z,100.00
2022-08-28T06:19:00.439Z,100.00
2022-08-28T06:21:28.954Z,100.00
2022-08-28T06:23:56.808Z,100.00
2022-08-28T06:26:24.808Z,100.00
2022-08-28T06:28:54.113Z,100.00
2022-08-28T06:31:24.637Z,100.00
2022-08-28T06:33:54.534Z,100.00
2022-08-28T06:36:22.746Z,100.00
2022-08-28T06:38:51.032Z,100.00
2022-08-28T06:41:19.209Z,100.00
2022-08-28T06:43:47.007Z,100.00
2022-08-28T06:46:16.196Z,100.00
2022-08-28T06:48:44.155Z,100.00
2022-08-28T06:51:14.183Z,100.00
2022-08-28T06:53:43.571Z,100.00
2022-08-28T06:56:25.393Z,100.00
2022-08-28T06:58:56.120Z,100.00
2022-08-28T07:01:29.122Z,100.00
2022-08-28T07:04:00.469Z,100.00
2022-08-28T07:06:29.096Z,100.00
2022-08-28T07:08:56.857Z,100.00
2022-08-28T07:11:26.852Z,100.00
2022-08-28T07:13:55.557Z,100.00
2022-08-28T07:16:27.007Z,100.00
2022-08-28T07:18:55.364Z,100.00
2022-08-28T07:21:23.159Z,100.00
2022-08-28T07:23:50.882Z,100.00
2022-08-28T07:26:23.493Z,100.00
2022-08-28T07:28:51.746Z,100.00
2022-08-28T07:31:22.860Z,100.00
2022-08-28T07:33:53.921Z,100.00
2022-08-28T07:36:29.476Z,100.00
2022-08-28T07:38:59.934Z,100.00
2022-08-28T07:41:30.041Z,100.00
2022-08-28T07:44:16.581Z,100.00
2022-08-28T07:46:45.278Z,100.00
2022-08-28T07:49:17.177Z,100.00
2022-08-28T07:51:46.797Z,100.00
2022-08-28T07:54:17.617Z,100.00
2022-08-28T07:56:45.845Z,100.00
2022-08-28T07:59:16.735Z,100.00
2022-08-28T08:01:47.988Z,100.00
2022-08-28T08:04:19.925Z,100.00
2022-08-28T08:06:48.289Z,100.00
2022-08-28T08:09:19.108Z,100.00
2022-08-28T08:11:49.118Z,100.00
2022-08-28T08:14:17.741Z,100.00
2022-08-28T08:16:47.983Z,100.00
2022-08-28T08:19:19.043Z,100.00
2022-08-28T08:21:51.693Z,100.00
2022-08-28T08:24:25.958Z,100.00
2022-08-28T08:26:59.278Z,100.00
2022-08-28T08:29:29.792Z,100.00
2022-08-28T08:31:58.774Z,100.00
2022-08-28T08:34:27.939Z,100.00
2022-08-28T08:36:55.706Z,100.00
2022-08-28T08:39:23.527Z,100.00
2022-08-28T08:41:54.946Z,100.00
2022-08-28T08:44:28.529Z,100.00
2022-08-28T08:47:13.856Z,100.00
2022-08-28T08:49:49.301Z,100.00
2022-08-28T08:52:29.148Z,100.00
2022-08-28T08:55:07.491Z,100.00
2022-08-28T08:57:37.292Z,100.00
2022-08-28T09:00:10.221Z,100.00
2022-08-28T09:02:47.907Z,100.00
2022-08-28T09:05:21.735Z,100.00
2022-08-28T09:07:56.753Z,100.00
2022-08-28T09:10:25.984Z,100.00
2022-08-28T09:13:01.548Z,100.00
2022-08-28T09:15:34.256Z,100.00
2022-08-28T09:18:11.761Z,100.00
2022-08-28T09:20:41.954Z,100.00
2022-08-28T09:23:13.418Z,100.00
2022-08-28T09:25:52.219Z,100.00
2022-08-28T09:28:23.102Z,100.00
2022-08-28T09:31:01.188Z,100.00
2022-08-28T09:33:41.812Z,100.00
2022-08-28T09:36:28.626Z,100.00
2022-08-28T09:39:13.076Z,100.00
2022-08-28T09:42:04.726Z,100.00
2022-08-28T09:44:32.543Z,100.00
2022-08-28T09:47:00.687Z,100.00
2022-08-28T09:49:30.863Z,100.00
2022-08-28T09:52:19.746Z,100.00
2022-08-28T09:54:51.356Z,100.00
2022-08-28T09:57:19.089Z,100.00
2022-08-28T09:59:46.845Z,100.00
2022-08-28T10:02:24.600Z,100.00
2022-08-28T10:05:02.171Z,100.00
2022-08-28T10:07:40.036Z,100.00
2022-08-28T10:10:19.483Z,100.00
2022-08-28T10:13:00.243Z,100.00
2022-08-28T10:15:33.968Z,100.00
2022-08-28T10:18:28.726Z,100.00
2022-08-28T10:21:03.903Z,100.00
2022-08-28T10:23:42.018Z,100.00
2022-08-28T10:26:26.141Z,100.00
2022-08-28T10:29:04.328Z,100.00
2022-08-28T10:31:39.698Z,100.00
2022-08-28T10:34:25.318Z,100.00
2022-08-28T10:37:03.243Z,100.00
2022-08-28T10:39:43.757Z,100.00
2022-08-28T10:42:11.962Z,100.00
2022-08-28T10:44:50.478Z,100.00
2022-08-28T10:47:20.740Z,100.00
2022-08-28T10:49:54.498Z,100.00
2022-08-28T10:52:27.748Z,100.00
2022-08-28T10:55:04.124Z,100.00
2022-08-28T10:57:39.697Z,100.00
2022-08-28T11:00:12.715Z,100.00
2022-08-28T11:02:42.971Z,100.00
2022-08-28T11:05:11.865Z,98.60
2022-08-28T11:07:44.898Z,78.48
2022-08-28T11:10:41.481Z,75.94
2022-08-28T11:13:10.621Z,85.13
2022-08-28T11:15:56.381Z,88.20
2022-08-28T11:19:07.995Z,67.74
2022-08-28T11:21:43.659Z,64.31
2022-08-28T11:24:27.295Z,57.19
2022-08-28T11:27:07.463Z,57.61
2022-08-28T11:30:01.510Z,64.74
2022-08-28T11:32:46.900Z,52.81
2022-08-28T11:35:46.512Z,55.04
2022-08-28T11:38:52.597Z,52.77
2022-08-28T11:41:24.209Z,52.70
2022-08-28T11:44:26.897Z,52.00
2022-08-28T11:46:57.108Z,52.15
2022-08-28T11:49:43.488Z,49.51
2022-08-28T11:52:32.393Z,46.88
2022-08-28T11:55:14.158Z,47.86
2022-08-28T12:00:49.422Z,45.72
2022-08-28T12:03:26.751Z,44.74
2022-08-28T12:05:57.133Z,45.19
2022-08-28T12:09:07.606Z,45.17
2022-08-28T12:11:51.072Z,47.53
2022-08-28T12:15:07.674Z,45.92
2022-08-28T12:17:54.496Z,47.04
2022-08-28T12:20:33.150Z,45.40
2022-08-28T12:23:02.896Z,45.23
2022-08-28T12:25:35.197Z,46.01
2022-08-28T12:28:12.917Z,44.59
2022-08-28T12:30:50.644Z,44.76
2022-08-28T12:33:24.275Z,49.50
2022-08-28T12:35:52.149Z,46.93
2022-08-28T12:38:22.076Z,48.20
2022-08-28T12:40:53.320Z,50.23
2022-08-28T12:43:29.269Z,54.22
2022-08-28T12:45:59.642Z,54.74
2022-08-28T12:48:32.342Z,56.85
2022-08-28T12:51:03.425Z,53.95
2022-08-28T12:53:39.814Z,51.03
2022-08-28T12:56:10.376Z,49.56
2022-08-28T12:58:40.408Z,50.06
2022-08-28T13:01:12.711Z,47.03
2022-08-28T13:03:52.061Z,46.67
2022-08-28T13:06:26.114Z,49.39
2022-08-28T13:09:00.618Z,46.46
2022-08-28T13:11:31.633Z,46.18
2022-08-28T13:13:59.214Z,44.94
2022-08-28T13:16:40.125Z,45.59
2022-08-28T13:19:27.457Z,43.63
2022-08-28T13:22:00.707Z,41.86
2022-08-28T13:24:40.067Z,44.14
2022-08-28T13:27:17.205Z,44.11
2022-08-28T13:29:57.285Z,43.42
2022-08-28T13:32:28.020Z,43.76
2022-08-28T13:35:16.583Z,43.49
2022-08-28T13:37:48.476Z,41.09
2022-08-28T13:40:53.319Z,40.80
2022-08-28T13:43:11.443Z,42.91
2022-08-28T13:45:43.029Z,42.83
2022-08-28T13:48:12.054Z,44.33
2022-08-28T13:50:46.730Z,48.88
2022-08-28T13:53:16.663Z,50.00
2022-08-28T13:55:44.668Z,49.20
2022-08-28T13:58:13.741Z,45.82
2022-08-28T14:00:44.598Z,43.94
2022-08-28T14:03:30.792Z,43.88
2022-08-28T14:05:59.896Z,48.88
2022-08-28T14:08:27.651Z,48.84
2022-08-28T14:10:55.462Z,47.10
2022-08-28T14:13:27.457Z,45.58
2022-08-28T14:15:55.512Z,47.94
2022-08-28T14:18:23.525Z,52.72
2022-08-28T14:20:51.302Z,55.50
2022-08-28T14:23:20.566Z,54.23
2022-08-28T14:25:49.069Z,50.20
2022-08-28T14:28:17.826Z,50.41
2022-08-28T14:30:46.514Z,47.43
2022-08-28T14:33:15.314Z,46.48
2022-08-28T14:35:43.305Z,41.40
2022-08-28T14:38:11.787Z,43.61
2022-08-28T14:40:42.751Z,47.02
2022-08-28T14:43:12.243Z,45.68
2022-08-28T14:45:45.095Z,47.10
2022-08-28T14:48:13.129Z,48.97
2022-08-28T14:50:42.127Z,52.11
2022-08-28T14:53:10.979Z,56.11
2022-08-28T14:55:45.333Z,60.86
2022-08-28T14:58:13.776Z,66.60
2022-08-28T15:00:43.034Z,68.91
2022-08-28T15:03:11.016Z,68.02
2022-08-28T15:05:39.082Z,67.43
2022-08-28T15:08:09.284Z,71.10
2022-08-28T15:10:38.792Z,73.99
2022-08-28T15:13:09.969Z,63.20
2022-08-28T15:15:39.326Z,62.92
2022-08-28T15:18:07.298Z,69.83
2022-08-28T15:20:38.743Z,68.05
2022-08-28T15:23:06.565Z,62.11
2022-08-28T15:25:34.324Z,57.64
2022-08-28T15:28:02.339Z,54.92
2022-08-28T15:30:31.410Z,54.29
2022-08-28T15:32:59.254Z,50.87
2022-08-28T15:35:27.098Z,51.36
2022-08-28T15:37:54.942Z,50.31
2022-08-28T15:40:40.790Z,52.10
2022-08-28T15:43:08.724Z,50.67
2022-08-28T15:45:39.593Z,44.91
2022-08-28T15:48:08.003Z,47.65
2022-08-28T15:50:35.972Z,49.20
2022-08-28T15:53:07.555Z,52.11
2022-08-28T15:55:36.626Z,55.09
2022-08-28T15:58:07.386Z,62.42
2022-08-28T16:00:43.844Z,58.16
2022-08-28T16:03:11.837Z,58.35
2022-08-28T16:05:41.002Z,54.61
2022-08-28T16:08:10.189Z,53.49
2022-08-28T16:10:37.955Z,50.81
2022-08-28T16:13:06.630Z,52.00
2022-08-28T16:15:34.678Z,48.91
2022-08-28T16:18:08.736Z,47.99
2022-08-28T16:20:36.821Z,50.19
2022-08-28T16:23:04.731Z,53.04
2022-08-28T16:25:32.492Z,56.76
2022-08-28T16:28:00.266Z,59.37
2022-08-28T16:30:28.007Z,59.84
2022-08-28T16:32:55.743Z,62.73
2022-08-28T16:35:24.966Z,63.61
2022-08-28T16:37:52.803Z,63.85
2022-08-28T16:40:20.940Z,63.37
2022-08-28T16:42:52.091Z,66.28
2022-08-28T16:45:20.225Z,64.16
2022-08-28T16:47:47.942Z,70.87
2022-08-28T16:50:16.682Z,74.76
2022-08-28T16:52:46.551Z,73.05
2022-08-28T16:55:16.058Z,70.66
2022-08-28T16:57:44.070Z,75.51
2022-08-28T17:00:13.897Z,77.40
2022-08-28T17:02:41.780Z,79.60
2022-08-28T17:05:10.603Z,85.24
2022-08-28T17:07:39.801Z,81.50
2022-08-28T17:10:12.062Z,81.94
2022-08-28T17:12:39.839Z,84.23
2022-08-28T17:15:08.791Z,81.82
2022-08-28T17:17:39.388Z,81.27
2022-08-28T17:20:28.758Z,86.54
2022-08-28T17:22:55.522Z,84.12
2022-08-28T17:25:25.678Z,82.90
2022-08-28T17:27:53.730Z,86.65
2022-08-28T17:30:22.024Z,90.65
2022-08-28T17:32:49.743Z,94.99
2022-08-28T17:35:17.541Z,94.07
2022-08-28T17:37:46.011Z,97.56
2022-08-28T17:40:17.323Z,97.11
2022-08-28T17:42:48.069Z,97.75
2022-08-28T17:45:16.566Z,100.00
2022-08-28T17:47:44.543Z,100.00
2022-08-28T17:50:12.853Z,100.00
2022-08-28T17:52:40.675Z,100.00
2022-08-28T17:55:08.994Z,100.00
2022-08-28T17:57:36.720Z,100.00
2022-08-28T18:00:09.697Z,100.00
2022-08-28T18:02:39.295Z,100.00
2022-08-28T18:05:07.883Z,100.00
2022-08-28T18:07:35.707Z,100.00
2022-08-28T18:10:03.436Z,100.00
2022-08-28T18:12:31.288Z,100.00
2022-08-28T18:14:58.997Z,100.00
2022-08-28T18:17:28.659Z,100.00
2022-08-28T18:19:57.357Z,100.00
2022-08-28T18:22:29.506Z,100.00
2022-08-28T18:24:57.780Z,100.00
2022-08-28T18:27:26.579Z,100.00
2022-08-28T18:29:54.390Z,100.00
2022-08-28T18:32:22.139Z,100.00
2022-08-28T18:34:51.234Z,100.00
2022-08-28T18:37:19.132Z,100.00
2022-08-28T18:39:46.846Z,100.00
2022-08-28T18:42:14.649Z,100.00
2022-08-28T18:44:42.392Z,100.00
2022-08-28T18:47:10.064Z,100.00
2022-08-28T18:49:37.868Z,100.00
2022-08-28T18:52:07.058Z,100.00
2022-08-28T18:54:34.760Z,100.00
2022-08-28T18:57:04.100Z,100.00
2022-08-28T18:59:33.246Z,100.00
2022-08-28T19:02:01.971Z,100.00
2022-08-28T19:04:29.905Z,100.00
2022-08-28T19:06:57.654Z,100.00
2022-08-28T19:09:32.142Z,100.00
2022-08-28T19:12:00.585Z,100.00
2022-08-28T19:14:28.325Z,100.00
2022-08-28T19:16:56.528Z,100.00
2022-08-28T19:19:24.963Z,100.00
2022-08-28T19:21:54.547Z,100.00
2022-08-28T19:24:22.659Z,100.00
2022-08-28T19:26:51.914Z,100.00
2022-08-28T19:29:19.608Z,100.00
2022-08-28T19:31:47.359Z,100.00
2022-08-28T19:34:15.147Z,100.00
2022-08-28T19:36:42.982Z,100.00
2022-08-28T19:39:10.690Z,100.00
2022-08-28T19:41:38.966Z,100.00
2022-08-28T19:44:08.586Z,100.00
2022-08-28T19:46:37.438Z,100.00
2022-08-28T19:49:07.548Z,100.00
2022-08-28T19:51:37.084Z,100.00
2022-08-28T19:54:05.739Z,100.00
2022-08-28T19:56:35.261Z,100.00
2022-08-28T19:59:06.282Z,100.00
2022-08-28T20:01:38.693Z,100.00
2022-08-28T20:04:07.989Z,100.00
2022-08-28T20:06:37.627Z,100.00
2022-08-28T20:09:12.013Z,100.00
2022-08-28T20:11:41.028Z,100.00
2022-08-28T20:14:09.268Z,100.00
2022-08-28T20:16:41.285Z,100.00
2022-08-28T20:19:10.462Z,100.00
2022-08-28T20:21:40.381Z,100.00
2022-08-28T20:24:10.077Z,100.00
2022-08-28T20:26:38.063Z,100.00
2022-08-28T20:29:08.494Z,100.00
2022-08-28T20:31:38.262Z,100.00
2022-08-28T20:34:07.915Z,100.00
2022-08-28T20:36:35.645Z,100.00
2022-08-28T20:39:07.073Z,100.00
2022-08-28T20:41:35.803Z,100.00
2022-08-28T20:44:05.569Z,100.00
2022-08-28T20:46:39.861Z,100.00
2022-08-28T20:49:11.720Z,100.00
2022-08-28T20:51:56.719Z,100.00
2022-08-28T20:54:27.672Z,100.00
2022-08-28T20:56:57.271Z,100.00
2022-08-28T20:59:28.889Z,100.00
2022-08-28T21:02:10.339Z,100.00
2022-08-28T21:04:40.917Z,100.00
2022-08-28T21:07:09.275Z,100.00
2022-08-28T21:10:01.427Z,100.00
2022-08-28T21:12:25.007Z,100.00
2022-08-28T21:14:53.310Z,100.00
2022-08-28T21:17:28.965Z,100.00
2022-08-28T21:20:04.264Z,100.00
2022-08-28T21:22:35.272Z,100.00
2022-08-28T21:25:04.387Z,100.00
2022-08-28T21:27:32.090Z,100.00
2022-08-28T21:30:01.088Z,100.00
2022-08-28T21:32:29.880Z,100.00
2022-08-28T21:35:00.613Z,100.00
2022-08-28T21:37:28.314Z,100.00
2022-08-28T21:39:56.310Z,100.00
2022-08-28T21:42:24.804Z,100.00
2022-08-28T21:44:54.414Z,100.00
2022-08-28T21:47:23.946Z,100.00
2022-08-28T21:49:53.162Z,100.00
2022-08-28T21:52:27.040Z,100.00
2022-08-28T21:54:58.194Z,100.00
2022-08-28T21:57:26.211Z,100.00
2022-08-28T21:59:54.039Z,100.00
2022-08-28T22:02:21.912Z,100.00
2022-08-28T22:04:50.000Z,100.00
2022-08-28T22:07:18.191Z,100.00
2022-08-28T22:09:47.399Z,100.00
2022-08-28T22:12:15.392Z,100.00
2022-08-28T22:14:43.259Z,100.00
2022-08-28T22:17:11.742Z,100.00
2022-08-28T22:19:40.154Z,100.00
2022-08-28T22:22:25.367Z,100.00
2022-08-28T22:24:54.520Z,100.00
2022-08-28T22:27:22.710Z,100.00
2022-08-28T22:29:50.416Z,100.00
2022-08-28T22:32:18.333Z,100.00
2022-08-28T22:34:47.480Z,100.00
2022-08-28T22:37:15.231Z,100.00
2022-08-28T22:39:43.270Z,100.00
2022-08-28T22:42:12.474Z,100.00
2022-08-28T22:44:40.259Z,100.00
2022-08-28T22:47:08.343Z,100.00
2022-08-28T22:49:39.584Z,100.00
2022-08-28T22:52:10.502Z,100.00
2022-08-28T22:54:38.534Z,100.00
2022-08-28T22:57:06.869Z,100.00
2022-08-28T22:59:36.471Z,100.00
2022-08-28T23:02:05.418Z,100.00
2022-08-28T23:04:34.412Z,100.00
2022-08-28T23:07:02.132Z,100.00
2022-08-28T23:09:29.825Z,100.00
2022-08-28T23:12:00.114Z,100.00
2022-08-28T23:14:28.259Z,100.00
2022-08-28T23:16:57.626Z,100.00
2022-08-28T23:19:25.624Z,100.00
2022-08-28T23:21:53.518Z,100.00
2022-08-28T23:24:21.216Z,100.00
2022-08-28T23:26:48.971Z,100.00
2022-08-28T23:29:16.711Z,100.00
2022-08-28T23:31:44.594Z,100.00
2022-08-28T23:34:13.717Z,100.00
2022-08-28T23:36:42.854Z,100.00
2022-08-28T23:39:11.073Z,100.00
2022-08-28T23:41:38.967Z,100.00
2022-08-28T23:44:09.189Z,100.00
2022-08-28T23:46:41.358Z,100.00
2022-08-28T23:49:10.096Z,100.00
2022-08-28T23:51:39.512Z,100.00
2022-08-28T23:54:07.891Z,100.00
2022-08-28T23:56:36.028Z,100.00
2022-08-28T23:59:04.058Z,100.00
